Time;durP1;ratioP1;P1;durP2;ratioP2;P2;SDS_P1;SDS_P2;PMS_P1;PMS_P2;Temp;Humidity;BMP_temperature;BMP_pressure;BME280_temperature;BME280_humidity;BME280_pressure;Samples;Min_cycle;Max_cycle;Signal;HPM_P1;HPM_P2
2023/05/28 00:02:05;;;;;;;11.25;9.38;;;;;;;9.11;100.00;162945.44;5071012;28;20453;-65
2023/05/28 00:04:31;;;;;;;12.38;10.32;;;;;;;9.10;100.00;162944.09;5069610;28;20129;-65
2023/05/28 00:06:56;;;;;;;9.60;8.52;;;;;;;9.06;100.00;162933.28;5071572;28;20489;-65
2023/05/28 00:09:22;;;;;;;22.13;10.82;;;;;;;9.04;100.00;162927.94;5069188;28;20036;-66
2023/05/28 00:11:47;;;;;;;17.67;9.50;;;;;;;9.05;100.00;162930.59;5071138;28;20025;-66
2023/05/28 00:14:13;;;;;;;13.02;9.02;;;;;;;9.03;100.00;162925.22;5069963;28;20375;-66
2023/05/28 00:16:40;;;;;;;13.57;9.68;;;;;;;8.97;100.00;162909.06;5070888;28;20488;-66
2023/05/28 00:19:06;;;;;;;17.23;9.52;;;;;;;8.94;100.00;162900.94;5069827;28;20413;-66
2023/05/28 00:21:33;;;;;;;15.32;10.90;;;;;;;8.95;100.00;162903.66;5071113;28;20100;-66
2023/05/28 00:23:58;;;;;;;26.42;11.38;;;;;;;8.95;100.00;162903.66;5068927;28;20403;-65
2023/05/28 00:26:25;;;;;;;18.20;10.45;;;;;;;8.96;100.00;162907.69;5070930;28;20024;-64
2023/05/28 00:28:50;;;;;;;21.27;9.45;;;;;;;8.97;100.00;162909.06;5069506;28;20123;-64
2023/05/28 00:31:15;;;;;;;15.27;9.38;;;;;;;8.94;100.00;162902.28;5070740;28;20035;-64
2023/05/28 00:33:43;;;;;;;11.20;8.68;;;;;;;8.95;100.00;162903.66;5069361;28;20086;-64
2023/05/28 00:36:09;;;;;;;15.20;9.85;;;;;;;8.91;100.00;162892.81;5071208;28;20020;-64
2023/05/28 00:38:34;;;;;;;14.23;10.45;;;;;;;8.87;100.00;162884.78;5069242;28;20514;-64
2023/05/28 00:41:00;;;;;;;19.75;9.75;;;;;;;8.87;100.00;162884.78;5070554;28;20032;-64
2023/05/28 00:43:25;;;;;;;9.52;7.82;;;;;;;8.88;100.00;162886.09;5069426;28;20456;-64
2023/05/28 00:45:51;;;;;;;19.88;11.95;;;;;;;8.87;100.00;162884.78;5070947;28;20025;-64
2023/05/28 00:48:17;;;;;;;18.30;9.35;;;;;;;8.83;100.00;162873.94;5070617;28;20078;-64
2023/05/28 00:50:43;;;;;;;14.63;8.55;;;;;;;8.89;100.00;162890.19;5069166;28;20495;-65
2023/05/28 00:53:10;;;;;;;13.80;8.05;;;;;;;8.94;100.00;162902.28;5070490;28;20021;-65
2023/05/28 00:55:36;;;;;;;15.20;9.57;;;;;;;8.98;100.00;162913.09;5068481;28;20040;-64
2023/05/28 00:58:05;;;;;;;17.73;9.93;;;;;;;9.02;100.00;162922.53;5070654;28;20490;-63
2023/05/28 01:00:33;;;;;;;24.20;12.65;;;;;;;9.06;100.00;162933.28;5068842;28;20502;-63
2023/05/28 01:02:58;;;;;;;16.17;10.95;;;;;;;9.10;100.00;162944.09;5070370;28;20494;-63
2023/05/28 01:05:24;;;;;;;14.30;10.18;;;;;;;9.15;100.00;162957.56;5069310;28;20036;-63
2023/05/28 01:07:50;;;;;;;20.20;11.25;;;;;;;9.21;100.00;162973.75;5070397;28;20594;-63
2023/05/28 01:10:16;;;;;;;16.88;9.55;;;;;;;9.31;100.00;162998.03;5068094;28;20048;-65
2023/05/28 01:12:43;;;;;;;15.25;10.23;;;;;;;9.33;100.00;163003.44;5070656;28;20031;-65
2023/05/28 01:15:09;;;;;;;15.15;9.15;;;;;;;9.43;100.00;163030.38;5069200;28;20044;-64
2023/05/28 01:17:35;;;;;;;18.17;10.35;;;;;;;9.41;100.00;163025.03;5070245;28;20016;-63
2023/05/28 01:20:05;;;;;;;30.67;11.02;;;;;;;9.34;100.00;163006.16;5068913;28;20055;-65
2023/05/28 01:22:37;;;;;;;19.08;9.40;;;;;;;9.29;100.00;162992.63;5069936;28;20530;-65
2023/05/28 01:25:09;;;;;;;22.98;11.65;;;;;;;9.24;100.00;162979.16;5068516;28;20079;-65
2023/05/28 01:27:36;;;;;;;16.75;10.35;;;;;;;9.21;100.00;162973.75;5069947;28;20108;-65
2023/05/28 01:30:02;;;;;;;18.00;10.43;;;;;;;9.18;100.00;162965.69;5068849;28;20128;-65
2023/05/28 01:32:27;;;;;;;18.13;10.63;;;;;;;9.18;100.00;162965.69;5070381;28;20383;-65
2023/05/28 01:34:52;;;;;;;16.30;10.25;;;;;;;9.21;100.00;162973.75;5068551;28;20045;-65
2023/05/28 01:37:18;;;;;;;22.00;12.02;;;;;;;9.25;100.00;162983.19;5073659;28;20081;-65
2023/05/28 01:39:46;;;;;;;18.55;10.98;;;;;;;9.36;100.00;163011.50;5071988;28;20043;-65
2023/05/28 01:42:12;;;;;;;22.70;13.00;;;;;;;9.27;100.00;162987.28;5074239;28;20111;-65
2023/05/28 01:44:39;;;;;;;24.73;13.75;;;;;;;9.41;100.00;163025.03;5072530;28;20483;-65
2023/05/28 01:47:05;;;;;;;15.65;11.00;;;;;;;9.42;100.00;163026.34;5073883;28;20024;-66
2023/05/28 01:49:31;;;;;;;21.88;11.38;;;;;;;9.40;100.00;163020.94;5072277;28;20456;-65
2023/05/28 01:51:57;;;;;;;21.23;11.65;;;;;;;9.39;100.00;163018.25;5073725;28;20028;-65
2023/05/28 01:54:22;;;;;;;16.42;11.45;;;;;;;9.45;100.00;163035.81;5072223;28;20032;-65
2023/05/28 01:56:47;;;;;;;25.52;11.85;;;;;;;9.46;100.00;163038.50;5073919;28;20379;-65
2023/05/28 01:59:13;;;;;;;17.23;10.27;;;;;;;9.41;100.00;163023.66;5072200;28;20047;-65
2023/05/28 02:01:38;;;;;;;20.15;11.43;;;;;;;9.35;100.00;163008.81;5073143;28;20056;-65
2023/05/28 02:04:03;;;;;;;25.85;11.07;;;;;;;9.30;100.00;162995.34;5072270;28;20036;-65
2023/05/28 02:06:31;;;;;;;19.95;11.80;;;;;;;9.23;100.00;162976.44;5073621;28;20033;-65
2023/05/28 02:08:56;;;;;;;23.90;12.52;;;;;;;9.16;100.00;162958.91;5071757;28;20052;-65
2023/05/28 02:11:22;;;;;;;18.13;10.60;;;;;;;9.16;100.00;162958.91;5073388;28;20048;-65
2023/05/28 02:13:48;;;;;;;17.38;10.50;;;;;;;9.12;100.00;162949.47;5071754;28;20491;-66
2023/05/28 02:16:17;;;;;;;16.52;11.20;;;;;;;9.17;100.00;162962.97;5073171;28;20387;-66
2023/05/28 02:18:49;;;;;;;21.67;11.32;;;;;;;9.19;100.00;162968.38;5071644;28;20040;-64
2023/05/28 02:21:17;;;;;;;20.17;10.32;;;;;;;9.25;100.00;162981.84;5073258;28;20024;-64
2023/05/28 02:23:44;;;;;;;16.80;11.15;;;;;;;9.27;100.00;162988.59;5071370;28;20128;-64
2023/05/28 02:26:10;;;;;;;17.20;11.05;;;;;;;9.27;100.00;162987.28;5073539;28;20025;-64
2023/05/28 02:28:35;;;;;;;27.88;14.93;;;;;;;9.31;100.00;162998.03;5071573;28;20028;-64
2023/05/28 02:31:00;;;;;;;19.55;10.80;;;;;;;9.19;100.00;162968.38;5072751;28;20023;-64
2023/05/28 02:33:26;;;;;;;18.55;13.00;;;;;;;9.34;100.00;163006.16;5071836;28;20024;-64
2023/05/28 02:35:51;;;;;;;27.02;13.30;;;;;;;9.37;100.00;163014.22;5073110;28;20021;-65
2023/05/28 02:38:17;;;;;;;19.10;12.85;;;;;;;9.39;100.00;163019.63;5072291;28;20025;-65
2023/05/28 02:40:42;;;;;;;25.30;12.25;;;;;;;9.40;100.00;163022.31;5071183;28;20045;-65
2023/05/28 02:43:07;;;;;;;21.42;10.45;;;;;;;9.41;100.00;163025.03;5073089;28;20418;-65
2023/05/28 02:45:33;;;;;;;38.78;13.10;;;;;;;9.38;100.00;163015.59;5070851;28;20045;-65
2023/05/28 02:47:58;;;;;;;27.30;12.23;;;;;;;9.42;100.00;163027.69;5072765;28;20033;-64
2023/05/28 02:50:23;;;;;;;21.02;11.13;;;;;;;9.46;100.00;163037.13;5070945;28;20127;-63
2023/05/28 02:52:49;;;;;;;24.95;13.55;;;;;;;9.52;100.00;163054.69;5064630;28;20025;-63
2023/05/28 02:55:14;;;;;;;19.30;12.55;;;;;;;9.57;100.00;163065.50;5067229;28;20495;-63
2023/05/28 02:57:40;;;;;;;26.40;12.15;;;;;;;9.57;100.00;163065.50;5072769;28;20395;-63
2023/05/28 03:00:09;;;;;;;20.77;11.68;;;;;;;9.62;100.00;163078.97;5070855;28;20047;-63
2023/05/28 03:02:34;;;;;;;30.77;16.15;;;;;;;9.60;100.00;163073.56;5072564;28;20090;-64
2023/05/28 03:05:02;;;;;;;27.00;14.85;;;;;;;9.59;100.00;163072.25;5071065;28;20044;-64
2023/05/28 03:07:30;;;;;;;25.33;14.57;;;;;;;9.55;100.00;163060.09;5072182;28;20056;-64
2023/05/28 03:09:57;;;;;;;19.52;12.48;;;;;;;9.55;100.00;163060.09;5071031;28;20056;-64
2023/05/28 03:12:22;;;;;;;17.30;11.55;;;;;;;9.43;100.00;163029.06;5072336;28;20028;-64
2023/05/28 03:14:47;;;;;;;25.23;11.77;;;;;;;9.34;100.00;163006.16;5070410;28;20033;-64
2023/05/28 03:17:13;;;;;;;21.70;13.43;;;;;;;9.24;100.00;162979.16;5072580;28;20017;-64
2023/05/28 03:19:38;;;;;;;21.27;12.90;;;;;;;9.14;100.00;162953.53;5070528;28;20040;-64
2023/05/28 03:22:03;;;;;;;16.15;11.15;;;;;;;9.07;100.00;162936.00;5071192;28;20036;-63
2023/05/28 03:24:30;;;;;;;23.05;14.30;;;;;;;9.01;100.00;162919.81;5070560;28;20044;-63
2023/05/28 03:26:56;;;;;;;32.88;15.60;;;;;;;8.97;100.00;162909.06;5072308;28;20021;-63
2023/05/28 03:29:22;;;;;;;28.08;12.77;;;;;;;8.96;100.00;162906.34;5070298;28;20037;-63
2023/05/28 03:31:47;;;;;;;34.42;17.80;;;;;;;9.05;100.00;162930.59;5071942;28;20094;-63
2023/05/28 03:34:13;;;;;;;28.83;14.18;;;;;;;9.07;100.00;162936.00;5070343;28;20483;-64
2023/05/28 03:36:40;;;;;;;27.05;15.25;;;;;;;9.17;100.00;162962.97;5071556;28;20024;-65
2023/05/28 03:39:07;;;;;;;20.92;14.57;;;;;;;9.23;100.00;162976.44;5070358;28;20033;-66
2023/05/28 03:41:33;;;;;;;31.45;13.88;;;;;;;9.28;100.00;162989.91;5071944;28;20024;-66
2023/05/28 03:43:58;;;;;;;22.73;14.10;;;;;;;9.30;100.00;162995.34;5070273;28;20037;-65
2023/05/28 03:46:24;;;;;;;32.88;13.95;;;;;;;9.29;100.00;162992.63;5071623;28;20654;-65
2023/05/28 03:48:49;;;;;;;25.30;15.30;;;;;;;9.31;100.00;162999.38;5070168;28;20358;-65
2023/05/28 03:51:14;;;;;;;27.38;17.80;;;;;;;9.34;100.00;163006.16;5070904;28;20027;-67
2023/05/28 03:53:40;;;;;;;28.63;14.52;;;;;;;9.37;100.00;163014.22;5070143;28;20499;-67
2023/05/28 03:56:06;;;;;;;24.67;15.10;;;;;;;9.40;100.00;163022.31;5071503;28;20529;-66
2023/05/28 03:58:31;;;;;;;29.48;15.25;;;;;;;9.44;100.00;163033.09;5069111;28;20036;-62
2023/05/28 04:00:56;;;;;;;21.17;16.38;;;;;;;9.40;100.00;163020.94;5071314;28;20040;-62
2023/05/28 04:03:22;;;;;;;24.48;15.75;;;;;;;9.44;100.00;163033.09;5069274;28;20364;-63
2023/05/28 04:05:47;;;;;;;28.80;16.15;;;;;;;9.46;100.00;163038.50;5070216;28;20043;-59
2023/05/28 04:08:12;;;;;;;29.42;20.25;;;;;;;9.49;100.00;163046.56;5069945;28;20020;-63
2023/05/28 04:10:38;;;;;;;33.90;17.98;;;;;;;9.52;100.00;163054.69;5065045;28;20045;-63
2023/05/28 04:13:03;;;;;;;22.75;14.18;;;;;;;9.55;100.00;163060.09;5064654;28;20040;-64
2023/05/28 04:15:28;;;;;;;22.73;14.70;;;;;;;9.59;100.00;163070.84;5049652;28;20048;-64
2023/05/28 04:17:54;;;;;;;23.55;17.63;;;;;;;9.60;100.00;163073.56;5051298;28;20033;-64
2023/05/28 04:20:20;;;;;;;29.27;18.65;;;;;;;9.64;100.00;163084.38;5049803;28;20041;-64
2023/05/28 04:22:46;;;;;;;26.67;17.80;;;;;;;9.67;100.00;163092.44;5050761;28;20028;-64
2023/05/28 04:25:12;;;;;;;26.85;14.43;;;;;;;9.71;100.00;163103.25;5049774;28;20040;-62
2023/05/28 04:27:37;;;;;;;32.85;14.30;;;;;;;9.77;100.00;163119.44;5050730;28;20017;-63
2023/05/28 04:30:03;;;;;;;27.25;17.00;;;;;;;9.82;100.00;163131.59;5063702;28;20110;-63
2023/05/28 04:32:31;;;;;;;27.40;17.20;;;;;;;9.87;100.00;163143.69;5070745;28;20025;-63
2023/05/28 04:34:56;;;;;;;30.67;14.85;;;;;;;9.92;100.00;163157.22;5069156;28;20186;-62
2023/05/28 04:37:21;;;;;;;27.90;14.35;;;;;;;9.97;100.00;163170.69;5070161;28;20103;-63
2023/05/28 04:39:47;;;;;;;27.17;15.30;;;;;;;10.04;100.00;163189.59;5067285;28;20373;-62
2023/05/28 04:42:16;;;;;;;31.48;19.25;;;;;;;10.14;100.00;163215.22;5069602;28;20037;-62
2023/05/28 04:44:42;;;;;;;35.25;20.80;;;;;;;10.22;100.00;163235.47;5067997;28;20040;-63
2023/05/28 04:47:08;;;;;;;27.55;16.25;;;;;;;10.33;100.00;163265.16;5070422;28;20020;-62
2023/05/28 04:49:34;;;;;;;26.67;14.68;;;;;;;10.41;100.00;163286.81;5067445;28;20119;-63
2023/05/28 04:51:59;;;;;;;37.25;16.85;;;;;;;10.48;100.00;163305.69;5062331;28;20055;-63
2023/05/28 04:54:26;;;;;;;29.95;15.50;;;;;;;10.54;100.00;163319.19;5068488;28;20032;-62
2023/05/28 04:56:51;;;;;;;30.45;14.15;;;;;;;10.58;100.00;163331.31;5069251;28;20065;-63
2023/05/28 04:59:17;;;;;;;29.55;16.30;;;;;;;10.64;100.00;163346.19;5068396;28;20380;-63
2023/05/28 05:01:42;;;;;;;28.73;15.43;;;;;;;10.74;100.00;163373.22;5069636;28;20460;-63
2023/05/28 05:04:08;;;;;;;27.13;13.93;;;;;;;10.82;100.00;163392.09;5067016;28;20109;-63
2023/05/28 05:06:33;;;;;;;27.90;14.80;;;;;;;10.94;100.00;163425.88;5069128;28;20082;-63
2023/05/28 05:08:59;;;;;;;46.28;28.75;;;;;;;11.02;100.00;163446.09;5068646;28;20033;-63
2023/05/28 05:11:26;;;;;;;33.00;15.18;;;;;;;11.20;100.00;163493.34;5071025;28;20020;-63
2023/05/28 05:13:51;;;;;;;34.97;13.75;;;;;;;11.38;100.00;163540.63;5072188;28;20506;-62
2023/05/28 05:16:17;;;;;;;27.77;13.55;;;;;;;11.38;100.00;163540.63;5073358;28;20020;-65
2023/05/28 05:18:42;;;;;;;25.95;15.10;;;;;;;11.74;100.00;163635.16;5069545;28;20047;-64
2023/05/28 05:21:10;;;;;;;25.38;14.90;;;;;;;11.89;100.00;163674.34;5073367;28;20028;-65
2023/05/28 05:23:35;;;;;;;23.80;12.82;;;;;;;11.94;100.00;163686.50;5071792;28;20028;-64
2023/05/28 05:26:00;;;;;;;26.52;14.50;;;;;;;11.95;100.00;163687.84;5072995;28;20039;-64
2023/05/28 05:28:26;;;;;;;17.63;11.57;;;;;;;11.96;100.00;163691.88;5072286;28;20475;-64
2023/05/28 05:30:51;;;;;;;34.88;15.25;;;;;;;11.99;100.00;163700.06;5067294;28;20541;-65
2023/05/28 05:33:16;;;;;;;24.15;13.40;;;;;;;11.99;100.00;163700.06;5052980;28;20407;-64
2023/05/28 05:35:42;;;;;;;20.52;12.02;;;;;;;12.00;100.00;163702.75;5051008;28;20041;-65
2023/05/28 05:38:07;;;;;;;25.05;15.35;;;;;;;11.94;100.00;163686.50;5053504;28;20021;-64
2023/05/28 05:40:32;;;;;;;26.25;16.65;;;;;;;11.94;100.00;163686.50;5067906;28;20041;-64
2023/05/28 05:42:58;;;;;;;30.30;14.93;;;;;;;12.03;100.00;163710.84;5072125;28;20035;-63
2023/05/28 05:45:23;;;;;;;26.25;14.98;;;;;;;12.10;100.00;163727.09;5071564;28;20040;-63
2023/05/28 05:47:49;;;;;;;25.60;13.57;;;;;;;12.11;100.00;163731.13;5072544;28;20028;-63
2023/05/28 05:50:14;;;;;;;25.73;12.65;;;;;;;12.13;100.00;163735.16;5069133;28;20054;-65
2023/05/28 05:52:40;;;;;;;30.40;13.68;;;;;;;12.12;100.00;163732.47;5073090;28;20503;-65
2023/05/28 05:55:07;;;;;;;25.23;12.25;;;;;;;12.11;100.00;163729.75;5072001;28;20040;-64
2023/05/28 05:57:33;;;;;;;34.75;14.50;;;;;;;12.16;100.00;163744.63;5071625;28;20382;-64
2023/05/28 05:59:59;;;;;;;21.38;11.57;;;;;;;12.25;100.00;163766.25;5071522;28;20071;-64
2023/05/28 06:02:25;;;;;;;24.38;12.60;;;;;;;12.34;100.00;163790.59;5073100;28;20399;-64
2023/05/28 06:04:51;;;;;;;39.88;18.45;;;;;;;12.44;100.00;163817.59;5069868;28;20091;-64
2023/05/28 06:07:17;;;;;;;32.25;13.90;;;;;;;12.49;100.00;163829.75;5073279;28;20488;-64
2023/05/28 06:09:42;;;;;;;31.77;14.60;;;;;;;12.55;100.00;163845.97;5071345;28;20045;-64
2023/05/28 06:12:07;;;;;;;21.85;13.60;;;;;;;12.66;100.00;163875.72;5071122;28;20027;-64
2023/05/28 06:14:33;;;;;;;34.00;15.35;;;;;;;12.75;100.00;163897.34;5071218;28;20040;-64
2023/05/28 06:16:58;;;;;;;22.50;12.57;;;;;;;12.81;100.00;163913.56;5071649;28;20028;-64
2023/05/28 06:19:24;;;;;;;26.27;12.30;;;;;;;12.98;100.00;163959.53;5070338;28;20052;-65
2023/05/28 06:21:49;;;;;;;29.70;13.68;;;;;;;13.12;100.00;163994.66;5071802;28;20032;-64
2023/05/28 06:24:14;;;;;;;26.65;15.70;;;;;;;13.33;100.00;164050.06;5070335;28;20040;-64
2023/05/28 06:26:40;;;;;;;18.33;10.13;;;;;;;13.53;100.00;164102.88;5071222;28;20082;-64
2023/05/28 06:29:07;;;;;;;24.77;11.70;;;;;;;13.74;100.00;164156.94;5070769;28;20453;-64
2023/05/28 06:31:33;;;;;;;22.65;10.73;;;;;;;13.94;100.00;164211.09;5070831;28;20048;-64
2023/05/28 06:33:58;;;;;;;18.63;10.73;;;;;;;14.16;100.00;164267.88;5070056;28;20599;-64
2023/05/28 06:36:23;;;;;;;30.05;13.05;;;;;;;14.41;100.00;164334.19;5072115;28;20662;-65
2023/05/28 06:38:49;;;;;;;20.35;10.82;;;;;;;14.61;100.00;164385.56;5068895;28;20047;-63
2023/05/28 06:41:15;;;;;;;30.63;13.23;;;;;;;14.71;100.00;164411.31;5069787;28;20020;-65
2023/05/28 06:43:40;;;;;;;22.35;10.70;;;;;;;14.82;100.00;164441.13;5057797;28;20044;-65
2023/05/28 06:46:06;;;;;;;22.70;10.68;;;;;;;14.94;100.00;164470.88;5072068;28;20028;-65
2023/05/28 06:48:31;;;;;;;24.98;10.70;;;;;;;15.12;100.00;164519.59;5069661;28;20032;-65
2023/05/28 06:50:57;;;;;;;22.17;12.27;;;;;;;15.32;100.00;164571.03;5071936;28;20028;-64
2023/05/28 06:53:22;;;;;;;16.40;10.38;;;;;;;15.25;100.00;164553.47;5071172;28;20082;-65
2023/05/28 06:55:47;;;;;;;17.63;9.00;;;;;;;15.31;100.00;164568.31;5071326;28;20047;-65
2023/05/28 06:58:13;;;;;;;16.88;9.95;;;;;;;15.38;100.00;164588.66;5071387;28;20483;-64
2023/05/28 07:00:38;;;;;;;34.00;16.00;;;;;;;15.45;100.00;164606.22;5069942;28;20056;-64
2023/05/28 07:03:03;;;;;;;20.10;12.02;;;;;;;15.44;100.00;164602.16;5071000;28;20074;-65
2023/05/28 07:05:29;;;;;;;22.42;12.38;;;;;;;15.37;100.00;164584.59;5069562;28;20040;-64
2023/05/28 07:07:55;;;;;;;19.20;9.30;;;;;;;15.55;100.00;164633.31;5069263;28;20403;-64
2023/05/28 07:10:20;;;;;;;19.05;10.85;;;;;;;15.33;100.00;164573.75;5069517;28;20063;-64
2023/05/28 07:12:46;;;;;;;22.77;10.73;;;;;;;15.46;100.00;164608.94;5071339;28;20529;-64
2023/05/28 07:15:11;;;;;;;18.63;9.88;;;;;;;15.27;100.00;164558.84;5070562;28;20045;-64
2023/05/28 07:17:36;;;;;;;18.15;9.95;;;;;;;15.39;100.00;164591.34;5070802;28;20016;-64
2023/05/28 07:20:04;;;;;;;16.35;8.77;;;;;;;15.36;100.00;164581.88;5069988;28;20036;-64
2023/05/28 07:22:29;;;;;;;27.17;10.10;;;;;;;15.44;100.00;164603.56;5071688;28;20032;-64
2023/05/28 07:24:55;;;;;;;24.13;12.23;;;;;;;15.49;100.00;164617.06;5069300;28;20457;-65
2023/05/28 07:27:20;;;;;;;26.10;11.65;;;;;;;15.46;100.00;164608.94;5071071;28;20116;-65
2023/05/28 07:29:46;;;;;;;20.38;11.02;;;;;;;15.50;100.00;164619.78;5069431;28;20564;-65
2023/05/28 07:32:11;;;;;;;30.15;12.05;;;;;;;15.61;100.00;164648.22;5070576;28;20037;-64
2023/05/28 07:34:38;;;;;;;25.27;12.32;;;;;;;15.64;100.00;164654.97;5068890;28;20037;-65
2023/05/28 07:37:04;;;;;;;18.35;10.20;;;;;;;15.67;100.00;164663.13;5071736;28;20012;-64
2023/05/28 07:39:29;;;;;;;22.52;9.73;;;;;;;15.57;100.00;164637.34;5068897;28;20043;-64
2023/05/28 07:41:55;;;;;;;22.30;9.38;;;;;;;15.69;100.00;164669.88;5070598;28;20545;-64
2023/05/28 07:44:21;;;;;;;16.08;7.97;;;;;;;15.69;100.00;164668.50;5068283;28;20053;-64
2023/05/28 07:46:46;;;;;;;23.20;11.32;;;;;;;15.74;100.00;164680.69;5070625;28;20032;-64
2023/05/28 07:49:12;;;;;;;28.15;12.07;;;;;;;16.09;100.00;164774.19;5069114;28;20403;-64
2023/05/28 07:51:37;;;;;;;15.07;8.93;;;;;;;16.34;100.00;164839.22;5055991;28;20040;-64
2023/05/28 07:54:02;;;;;;;20.58;10.75;;;;;;;16.48;100.00;164877.13;5059972;28;20037;-64
2023/05/28 07:56:28;;;;;;;17.30;9.90;;;;;;;16.70;100.00;164932.66;5070736;28;20021;-63
2023/05/28 07:58:53;;;;;;;18.23;11.35;;;;;;;16.73;100.00;164942.13;5069190;28;20044;-64
2023/05/28 08:01:18;;;;;;;23.73;10.50;;;;;;;16.97;100.00;165004.50;5061249;28;20036;-62
2023/05/28 08:03:48;;;;;;;22.08;9.30;;;;;;;17.20;100.00;165064.13;5054485;28;20051;-62
2023/05/28 08:06:13;;;;;;;22.35;10.30;;;;;;;17.43;100.00;165126.47;5070939;28;20025;-63
2023/05/28 08:08:40;;;;;;;21.92;10.13;;;;;;;17.70;100.00;165196.94;5056852;28;20536;-62
2023/05/28 08:11:06;;;;;;;21.85;9.45;;;;;;;17.85;100.00;165234.88;5051729;28;20021;-62
2023/05/28 08:13:31;;;;;;;25.13;11.90;;;;;;;-146.58;100.00;69501.63;5062739;28;20039;-62
2023/05/28 08:15:58;;;;;;;22.05;8.73;;;;;;;17.95;100.00;165262.06;5043000;28;20027;-62
2023/05/28 08:18:24;;;;;;;17.88;7.85;;;;;;;18.07;100.00;165294.59;5045036;28;20104;-62
2023/05/28 08:20:50;;;;;;;20.05;10.10;;;;;;;18.12;100.00;165305.47;5059267;28;20397;-62
2023/05/28 08:23:15;;;;;;;22.55;10.95;;;;;;;18.15;100.00;165313.56;5070015;28;20020;-62
2023/05/28 08:25:41;;;;;;;19.90;11.25;;;;;;;18.23;100.00;165335.28;5068707;28;20048;-62
2023/05/28 08:28:09;;;;;;;13.05;8.25;;;;;;;18.28;100.00;165347.47;5070550;28;20780;-62
2023/05/28 08:30:35;;;;;;;;;;;;;;;18.27;100.00;165344.75;5069160;28;20037;-62
2023/05/28 08:33:00;;;;;;;15.45;7.65;;;;;;;18.45;100.00;165393.59;5069794;28;19923;-62
2023/05/28 08:35:25;;;;;;;25.75;9.93;;;;;;;18.38;100.00;165374.63;5068662;28;20048;-62
2023/05/28 08:37:51;;;;;;;15.55;7.32;;;;;;;18.57;100.00;165423.41;5070023;28;20012;-62
2023/05/28 08:40:17;;;;;;;19.55;7.60;;;;;;;18.67;100.00;165451.88;5067893;28;20518;-62
2023/05/28 08:42:43;;;;;;;16.80;8.95;;;;;;;18.86;100.00;165500.72;5069897;28;20036;-62
2023/05/28 08:45:09;;;;;;;16.02;8.65;;;;;;;18.59;100.00;165430.19;5055002;28;20067;-63
2023/05/28 08:47:36;;;;;;;17.23;7.88;;;;;;;18.74;100.00;165469.53;5069358;28;20479;-62
2023/05/28 08:50:05;;;;;;;15.02;7.57;;;;;;;18.71;100.00;165461.38;5066996;28;20060;-62
2023/05/28 08:52:32;;;;;;;21.60;9.60;;;;;;;18.87;100.00;165503.47;5070156;28;20070;-62
2023/05/28 08:54:58;;;;;;;26.65;10.07;;;;;;;19.22;100.00;165595.72;5063743;28;20463;-62
2023/05/28 08:57:25;;;;;;;18.48;8.15;;;;;;;19.61;100.00;165698.84;5051228;28;20625;-62
2023/05/28 08:59:52;;;;;;;14.88;7.20;;;;;;;19.63;100.00;165702.91;5060963;28;20221;-62
2023/05/28 09:02:23;;;;;;;12.68;7.70;;;;;;;19.87;100.00;165766.72;5069702;28;20101;-62
2023/05/28 09:04:49;;;;;;;11.35;5.78;;;;;;;20.31;100.00;165880.72;5068512;28;20446;-62
2023/05/28 09:07:15;;;;;;;15.73;6.63;;;;;;;20.64;100.00;165968.97;5063291;28;20017;-62
2023/05/28 09:09:40;;;;;;;13.38;5.88;;;;;;;20.49;100.00;165929.63;5068281;28;20086;-63
2023/05/28 09:12:10;;;;;;;14.63;7.82;;;;;;;20.73;100.00;165992.13;5070321;28;20074;-62
2023/05/28 09:14:41;;;;;;;14.30;6.90;;;;;;;20.56;100.00;165948.63;5068423;28;20119;-62
2023/05/28 09:17:08;;;;;;;10.23;6.05;;;;;;;20.45;100.00;165918.72;5069086;28;20021;-62
2023/05/28 09:19:34;;;;;;;16.15;6.95;;;;;;;20.12;100.00;165831.88;5065999;28;20063;-63
2023/05/28 09:22:01;;;;;;;11.48;6.05;;;;;;;20.40;100.00;165905.16;5068287;28;20056;-63
2023/05/28 09:24:27;;;;;;;16.35;5.25;;;;;;;20.62;100.00;165963.56;5057385;28;20120;-63
2023/05/28 09:26:55;;;;;;;13.05;4.82;;;;;;;20.81;100.00;166012.47;5052911;28;20120;-63
2023/05/28 09:29:22;;;;;;;12.23;4.80;;;;;;;20.90;100.00;166038.25;5065873;28;20064;-63
2023/05/28 09:31:55;;;;;;;11.15;4.88;;;;;;;20.90;100.00;166038.25;5068324;28;20105;-63
2023/05/28 09:34:25;;;;;;;14.52;5.10;;;;;;;21.20;100.00;166115.69;5068503;28;20426;-63
2023/05/28 09:36:51;;;;;;;14.20;5.53;;;;;;;21.17;100.00;166108.91;5069624;28;20021;-63
2023/05/28 09:39:17;;;;;;;12.93;6.25;;;;;;;21.27;100.00;166133.31;5068459;28;20040;-63
2023/05/28 09:41:44;;;;;;;15.65;5.32;;;;;;;21.50;100.00;166195.78;5069435;28;20391;-63
2023/05/28 09:44:10;;;;;;;15.32;6.45;;;;;;;21.56;100.00;166212.06;5068640;28;20038;-63
2023/05/28 09:46:36;;;;;;;15.38;6.40;;;;;;;21.46;100.00;166184.94;5069307;28;20024;-63
2023/05/28 09:49:03;;;;;;;12.88;6.88;;;;;;;20.97;100.00;166054.53;5068548;28;20048;-63
2023/05/28 09:51:30;;;;;;;13.98;4.55;;;;;;;21.16;100.00;166104.78;5069968;28;20070;-63
2023/05/28 09:54:00;;;;;;;23.33;7.78;;;;;;;20.90;100.00;166038.25;5068265;28;20039;-62
2023/05/28 09:56:33;;;;;;;13.98;5.95;;;;;;;21.04;100.00;166073.53;5070640;28;20016;-63
2023/05/28 09:59:03;;;;;;;13.82;4.95;;;;;;;21.08;100.00;166084.44;5072141;28;20102;-63
2023/05/28 10:01:38;;;;;;;9.13;5.80;;;;;;;20.98;100.00;166058.66;5072823;28;20049;-63
2023/05/28 10:04:14;;;;;;;16.42;7.57;;;;;;;20.69;100.00;165981.19;5071839;28;20082;-63
2023/05/28 10:06:42;;;;;;;14.27;5.10;;;;;;;20.38;100.00;165899.72;5073118;28;20040;-63
2023/05/28 10:09:12;;;;;;;12.68;6.75;;;;;;;20.66;100.00;165973.06;5071546;28;20064;-63
2023/05/28 10:11:44;;;;;;;15.65;6.38;;;;;;;20.55;100.00;165945.91;5072436;28;20114;-63
2023/05/28 10:14:10;;;;;;;12.20;7.53;;;;;;;20.96;100.00;166051.88;5072177;28;20036;-63
2023/05/28 10:16:35;;;;;;;12.65;6.00;;;;;;;21.20;100.00;166117.00;5072666;28;20506;-63
2023/05/28 10:19:01;;;;;;;15.82;7.05;;;;;;;21.34;100.00;166153.69;5071659;28;20041;-63
2023/05/28 10:21:27;;;;;;;14.35;7.20;;;;;;;21.28;100.00;166137.41;5072318;28;20036;-63
2023/05/28 10:23:52;;;;;;;18.15;7.20;;;;;;;21.67;100.00;166239.31;5070868;28;20422;-63
2023/05/28 10:26:18;;;;;;;8.45;4.45;;;;;;;21.43;100.00;166176.78;5072987;28;20158;-63
2023/05/28 10:28:44;;;;;;;13.40;5.50;;;;;;;21.56;100.00;166212.06;5071134;28;20514;-63
2023/05/28 10:31:10;;;;;;;7.18;3.55;;;;;;;21.77;100.00;166265.09;5052926;28;20033;-63
2023/05/28 10:33:43;;;;;;;15.60;5.22;;;;;;;22.06;100.00;166342.56;5051516;28;20025;-63
2023/05/28 10:36:13;;;;;;;12.45;5.78;;;;;;;21.96;100.00;166315.38;5052636;28;20029;-63
2023/05/28 10:38:43;;;;;;;13.73;6.75;;;;;;;22.05;100.00;166338.44;5051995;28;20029;-63
2023/05/28 10:41:08;;;;;;;7.47;3.42;;;;;;;22.19;100.00;166376.50;5072854;28;20082;-63
2023/05/28 10:43:39;;;;;;;18.35;6.32;;;;;;;22.02;100.00;166331.66;5070624;28;20483;-63
2023/05/28 10:46:09;;;;;;;12.95;4.82;;;;;;;22.25;100.00;166391.44;5071704;28;20021;-63
2023/05/28 10:48:42;;;;;;;12.00;3.95;;;;;;;22.39;100.00;166429.53;5051075;28;20035;-63
2023/05/28 10:51:07;;;;;;;12.38;5.43;;;;;;;22.34;100.00;166415.91;5052427;28;20065;-63
2023/05/28 10:53:33;;;;;;;15.63;5.88;;;;;;;22.24;100.00;166388.72;5050398;28;20379;-63
2023/05/28 10:56:01;;;;;;;13.38;4.85;;;;;;;22.16;100.00;166368.38;5052688;28;20033;-63
2023/05/28 10:58:36;;;;;;;12.05;5.00;;;;;;;21.86;100.00;166289.56;5054155;28;20012;-63
2023/05/28 11:01:11;;;;;;;12.55;5.30;;;;;;;22.05;100.00;166338.44;5071353;28;20052;-63
2023/05/28 11:03:45;;;;;;;14.27;5.18;;;;;;;22.34;100.00;166417.25;5059596;28;20422;-64